Kullen, Sweden

5:41 PM CEST on October 02, 2014 (GMT +0200)
Strandbaden | Change Station
CLOSE
Current Station
Personal Weather Station
Location: Höganäs,
Elevation: 39 ft
Nearby Weather Stations

Elev 39 ft 56.23 °N, 12.54 °E | Updated 6 minutes ago

Mostly Cloudy
Mostly Cloudy
59.4 °F
Feels Like 59.4 °F
N
-
Wind Variable Wind from North

Today
High -- | Low -- °F
--% Chance of Precip.
Yesterday
High -- | Low -- °F
Precip. -- in
7:14 AM 6:43 PM
First Quarter, 60% visible
Pressure 30.36 in
Visibility 4.3 miles
Clouds Few 600 ft
Mostly Cloudy 1800 ft
Dew Point 57 °F
Humidity 94%
Rainfall 0.01 in
Snow Depth Not available.
UV 0 out of 12
Pollen Not available.
Air Quality Not available.
Flu Activity Not available.
METAR ESTA 021520Z 28005KT 7000 BR FEW006 BKN018 15/14 Q1028 REDZ

More Conditions Fewer Conditions

Pressure 30.36 in
Visibility 4.3 miles
Clouds Few 600 ft
Mostly Cloudy 1800 ft
Dew Point 57 °F
Humidity 94%
Rainfall 0.01 in
Snow Depth Not available.
UV 0 out of 12
Pollen Not available.
Air Quality Not available.
Flu Activity Not available.
METAR ESTA 021520Z 28005KT 7000 BR FEW006 BKN018 15/14 Q1028 REDZ

More Conditions Fewer Conditions

10-Day Weather Forecast

Almanac

Astronomy

Oct. 02, 2014 Rise Set
Actual Time 7:14 AM CEST 6:43 PM CEST
Civil Twilight 6:37 AM CEST 7:20 PM CEST
Nautical Twilight 5:53 AM CEST 8:03 PM CEST
Astronomical Twilight 5:08 AM CEST 8:48 PM CEST
Moon 3:34 PM CEST No Moon Set
Length of Visible Light 12h 42m
Length of Day
11h 28m
Tomorrow will be 4m 40s shorter.
First Quarter, 60% of the Moon is Illuminated
Today
First Quarter
Oct 8
Full
Oct 15
Last Quarter
Oct 23
New
Oct 30
First Quarter

Today's Extremes

Country Highs Country Lows

Community

WunderPhotos

Upload Photos

1,758,276 photos uploaded!

WunderBlogs® & News

Nearby

Snow Depth

Not available.

Earthquake Activity

City Distance Mag. Time & Date
No recent earthquake activity has been reported nearby.
Minimum magnitude displayed is 2.5.

Coastal Water Temperatures

Place Temperature
No Stations Reporting

Nearby Weather Stations